sensor_id;sensor_type;location;lat;lon;timestamp;pressure;altitude;pressure_sealevel;temperature
68127;BMP180;54931;52.098;21.006;2023-02-12T00:01:27;101432.60;;;1.40
68127;BMP180;54931;52.098;21.006;2023-02-12T00:03:56;101434.40;;;1.30
68127;BMP180;54931;52.098;21.006;2023-02-12T00:06:24;101438.20;;;1.30
68127;BMP180;54931;52.098;21.006;2023-02-12T00:08:55;101443.40;;;1.20
68127;BMP180;54931;52.098;21.006;2023-02-12T00:11:28;101443.00;;;1.20
68127;BMP180;54931;52.098;21.006;2023-02-12T00:13:57;101444.40;;;1.10
68127;BMP180;54931;52.098;21.006;2023-02-12T00:16:27;101454.00;;;1.10
68127;BMP180;54931;52.098;21.006;2023-02-12T00:18:57;101472.80;;;1.04
68127;BMP180;54931;52.098;21.006;2023-02-12T00:21:26;101476.80;;;1.00
68127;BMP180;54931;52.098;21.006;2023-02-12T00:23:54;101476.60;;;1.00
68127;BMP180;54931;52.098;21.006;2023-02-12T00:26:23;101481.20;;;1.00
68127;BMP180;54931;52.098;21.006;2023-02-12T00:28:53;101494.60;;;0.98
68127;BMP180;54931;52.098;21.006;2023-02-12T00:31:27;101494.40;;;0.90
68127;BMP180;54931;52.098;21.006;2023-02-12T00:33:56;101502.40;;;0.90
68127;BMP180;54931;52.098;21.006;2023-02-12T00:36:27;101501.60;;;0.90
68127;BMP180;54931;52.098;21.006;2023-02-12T00:38:56;101508.80;;;0.90
68127;BMP180;54931;52.098;21.006;2023-02-12T00:41:25;101511.60;;;0.88
68127;BMP180;54931;52.098;21.006;2023-02-12T00:43:53;101518.80;;;0.80
68127;BMP180;54931;52.098;21.006;2023-02-12T00:46:22;101518.00;;;0.80
68127;BMP180;54931;52.098;21.006;2023-02-12T00:48:50;101523.80;;;0.80
68127;BMP180;54931;52.098;21.006;2023-02-12T00:51:18;101519.00;;;0.70
68127;BMP180;54931;52.098;21.006;2023-02-12T00:53:46;101518.00;;;0.70
68127;BMP180;54931;52.098;21.006;2023-02-12T00:56:14;101523.60;;;0.70
68127;BMP180;54931;52.098;21.006;2023-02-12T00:58:42;101527.00;;;0.64
68127;BMP180;54931;52.098;21.006;2023-02-12T01:01:10;101531.20;;;0.60
68127;BMP180;54931;52.098;21.006;2023-02-12T01:03:38;101532.60;;;0.60
68127;BMP180;54931;52.098;21.006;2023-02-12T01:06:06;101540.80;;;0.60
68127;BMP180;54931;52.098;21.006;2023-02-12T01:08:35;101541.20;;;0.60
68127;BMP180;54931;52.098;21.006;2023-02-12T01:11:05;101545.60;;;0.58
68127;BMP180;54931;52.098;21.006;2023-02-12T01:13:34;101553.40;;;0.54
68127;BMP180;54931;52.098;21.006;2023-02-12T01:16:24;101556.60;;;0.52
68127;BMP180;54931;52.098;21.006;2023-02-12T01:18:54;101559.60;;;0.54
68127;BMP180;54931;52.098;21.006;2023-02-12T01:21:28;101569.00;;;0.52
68127;BMP180;54931;52.098;21.006;2023-02-12T01:23:57;101572.60;;;0.56
68127;BMP180;54931;52.098;21.006;2023-02-12T01:26:27;101569.80;;;0.58
68127;BMP180;54931;52.098;21.006;2023-02-12T01:29:02;101573.00;;;0.60
68127;BMP180;54931;52.098;21.006;2023-02-12T01:31:36;101577.40;;;0.54
68127;BMP180;54931;52.098;21.006;2023-02-12T01:34:06;101575.40;;;0.50
68127;BMP180;54931;52.098;21.006;2023-02-12T01:36:34;101580.40;;;0.50
68127;BMP180;54931;52.098;21.006;2023-02-12T01:39:05;101580.20;;;0.50
68127;BMP180;54931;52.098;21.006;2023-02-12T01:41:38;101589.60;;;0.50
68127;BMP180;54931;52.098;21.006;2023-02-12T01:44:27;101587.40;;;0.50
68127;BMP180;54931;52.098;21.006;2023-02-12T01:47:02;101587.40;;;0.50
68127;BMP180;54931;52.098;21.006;2023-02-12T01:49:38;101595.20;;;0.50
68127;BMP180;54931;52.098;21.006;2023-02-12T01:52:17;101598.60;;;0.50
68127;BMP180;54931;52.098;21.006;2023-02-12T01:54:52;101607.00;;;0.50
68127;BMP180;54931;52.098;21.006;2023-02-12T01:57:21;101602.20;;;0.50
68127;BMP180;54931;52.098;21.006;2023-02-12T01:59:54;101596.60;;;0.50
68127;BMP180;54931;52.098;21.006;2023-02-12T02:02:22;101594.60;;;0.48
68127;BMP180;54931;52.098;21.006;2023-02-12T02:04:56;101608.00;;;0.44
68127;BMP180;54931;52.098;21.006;2023-02-12T02:07:25;101612.80;;;0.40
68127;BMP180;54931;52.098;21.006;2023-02-12T02:09:54;101621.20;;;0.40
68127;BMP180;54931;52.098;21.006;2023-02-12T02:12:25;101624.20;;;0.40
68127;BMP180;54931;52.098;21.006;2023-02-12T02:15:11;101623.80;;;0.40
68127;BMP180;54931;52.098;21.006;2023-02-12T02:21:18;101638.20;;;0.40
68127;BMP180;54931;52.098;21.006;2023-02-12T02:27:41;101663.00;;;0.40
68127;BMP180;54931;52.098;21.006;2023-02-12T02:30:56;101652.60;;;0.40
68127;BMP180;54931;52.098;21.006;2023-02-12T02:34:02;101656.60;;;0.38
68127;BMP180;54931;52.098;21.006;2023-02-12T02:36:46;101673.80;;;0.40
68127;BMP180;54931;52.098;21.006;2023-02-12T02:39:28;101675.00;;;0.34
68127;BMP180;54931;52.098;21.006;2023-02-12T02:42:32;101683.20;;;0.34
68127;BMP180;54931;52.098;21.006;2023-02-12T02:45:26;101683.80;;;0.32
68127;BMP180;54931;52.098;21.006;2023-02-12T02:48:02;101694.20;;;0.32
68127;BMP180;54931;52.098;21.006;2023-02-12T02:50:34;101701.20;;;0.30
68127;BMP180;54931;52.098;21.006;2023-02-12T02:53:12;101695.60;;;0.32
68127;BMP180;54931;52.098;21.006;2023-02-12T02:55:52;101700.80;;;0.30
68127;BMP180;54931;52.098;21.006;2023-02-12T02:58:33;101710.00;;;0.30
68127;BMP180;54931;52.098;21.006;2023-02-12T03:01:19;101725.00;;;0.30
68127;BMP180;54931;52.098;21.006;2023-02-12T03:04:03;101724.80;;;0.30
68127;BMP180;54931;52.098;21.006;2023-02-12T03:07:02;101730.20;;;0.30
68127;BMP180;54931;52.098;21.006;2023-02-12T03:12:25;101739.60;;;0.30
68127;BMP180;54931;52.098;21.006;2023-02-12T03:17:43;101766.00;;;0.30
68127;BMP180;54931;52.098;21.006;2023-02-12T03:20:42;101777.20;;;0.30
68127;BMP180;54931;52.098;21.006;2023-02-12T03:23:23;101791.40;;;0.30
68127;BMP180;54931;52.098;21.006;2023-02-12T03:26:00;101797.20;;;0.30
68127;BMP180;54931;52.098;21.006;2023-02-12T03:28:34;101793.00;;;0.30
68127;BMP180;54931;52.098;21.006;2023-02-12T03:31:45;101792.80;;;0.30
68127;BMP180;54931;52.098;21.006;2023-02-12T03:34:39;101800.00;;;0.30
68127;BMP180;54931;52.098;21.006;2023-02-12T03:37:17;101810.00;;;0.30
68127;BMP180;54931;52.098;21.006;2023-02-12T03:45:45;101818.40;;;0.30
68127;BMP180;54931;52.098;21.006;2023-02-12T03:51:40;101838.20;;;0.30
68127;BMP180;54931;52.098;21.006;2023-02-12T03:54:12;101837.40;;;0.30
68127;BMP180;54931;52.098;21.006;2023-02-12T03:56:50;101837.20;;;0.30
68127;BMP180;54931;52.098;21.006;2023-02-12T03:59:21;101837.20;;;0.30
68127;BMP180;54931;52.098;21.006;2023-02-12T04:01:53;101836.80;;;0.30
68127;BMP180;54931;52.098;21.006;2023-02-12T04:04:23;101844.80;;;0.30
68127;BMP180;54931;52.098;21.006;2023-02-12T04:06:53;101846.20;;;0.30
68127;BMP180;54931;52.098;21.006;2023-02-12T04:09:23;101846.80;;;0.30
68127;BMP180;54931;52.098;21.006;2023-02-12T04:15:21;101847.60;;;0.24
68127;BMP180;54931;52.098;21.006;2023-02-12T04:18:14;101848.20;;;0.20
68127;BMP180;54931;52.098;21.006;2023-02-12T04:26:55;101865.80;;;0.18
68127;BMP180;54931;52.098;21.006;2023-02-12T04:32:51;101875.40;;;0.10
68127;BMP180;54931;52.098;21.006;2023-02-12T04:35:29;101881.40;;;0.10
68127;BMP180;54931;52.098;21.006;2023-02-12T04:38:14;101881.40;;;0.10
68127;BMP180;54931;52.098;21.006;2023-02-12T04:40:45;101877.20;;;0.10
68127;BMP180;54931;52.098;21.006;2023-02-12T04:43:14;101881.20;;;0.10
68127;BMP180;54931;52.098;21.006;2023-02-12T04:45:52;101885.00;;;0.08
68127;BMP180;54931;52.098;21.006;2023-02-12T04:48:20;101884.40;;;0.06
68127;BMP180;54931;52.098;21.006;2023-02-12T04:50:48;101875.00;;;0.00
68127;BMP180;54931;52.098;21.006;2023-02-12T04:53:16;101888.40;;;0.00
68127;BMP180;54931;52.098;21.006;2023-02-12T04:55:44;101893.00;;;0.00
68127;BMP180;54931;52.098;21.006;2023-02-12T04:58:12;101893.80;;;0.00
68127;BMP180;54931;52.098;21.006;2023-02-12T05:00:40;101895.80;;;0.00
68127;BMP180;54931;52.098;21.006;2023-02-12T05:03:08;101899.20;;;0.00
68127;BMP180;54931;52.098;21.006;2023-02-12T05:05:35;101906.60;;;0.00
68127;BMP180;54931;52.098;21.006;2023-02-12T05:08:04;101913.40;;;0.00
68127;BMP180;54931;52.098;21.006;2023-02-12T05:10:31;101918.80;;;0.00
68127;BMP180;54931;52.098;21.006;2023-02-12T05:12:59;101917.20;;;0.00
68127;BMP180;54931;52.098;21.006;2023-02-12T05:15:27;101917.20;;;0.00
68127;BMP180;54931;52.098;21.006;2023-02-12T05:17:54;101928.20;;;0.00
68127;BMP180;54931;52.098;21.006;2023-02-12T05:20:22;101937.00;;;0.00
68127;BMP180;54931;52.098;21.006;2023-02-12T05:22:53;101940.20;;;0.00
68127;BMP180;54931;52.098;21.006;2023-02-12T05:25:21;101943.40;;;-0.02
68127;BMP180;54931;52.098;21.006;2023-02-12T05:27:50;101953.80;;;0.00
68127;BMP180;54931;52.098;21.006;2023-02-12T05:30:18;101960.00;;;-0.04
68127;BMP180;54931;52.098;21.006;2023-02-12T05:32:47;101966.60;;;0.00
68127;BMP180;54931;52.098;21.006;2023-02-12T05:35:15;101969.40;;;-0.04
68127;BMP180;54931;52.098;21.006;2023-02-12T05:37:43;101970.60;;;-0.02
68127;BMP180;54931;52.098;21.006;2023-02-12T05:40:11;101978.00;;;-0.02
68127;BMP180;54931;52.098;21.006;2023-02-12T05:42:39;101990.60;;;-0.04
68127;BMP180;54931;52.098;21.006;2023-02-12T05:45:07;101989.20;;;-0.06
68127;BMP180;54931;52.098;21.006;2023-02-12T05:47:36;101988.00;;;-0.10
68127;BMP180;54931;52.098;21.006;2023-02-12T05:50:04;101992.20;;;-0.10
68127;BMP180;54931;52.098;21.006;2023-02-12T05:52:33;101998.80;;;-0.10
68127;BMP180;54931;52.098;21.006;2023-02-12T05:55:00;102001.80;;;-0.10
68127;BMP180;54931;52.098;21.006;2023-02-12T05:57:28;102003.20;;;-0.10
68127;BMP180;54931;52.098;21.006;2023-02-12T05:59:56;102008.40;;;-0.10
68127;BMP180;54931;52.098;21.006;2023-02-12T06:02:24;102010.80;;;-0.12
68127;BMP180;54931;52.098;21.006;2023-02-12T06:04:51;102016.40;;;-0.14
68127;BMP180;54931;52.098;21.006;2023-02-12T06:07:19;102020.80;;;-0.14
68127;BMP180;54931;52.098;21.006;2023-02-12T06:09:48;102026.20;;;-0.10
68127;BMP180;54931;52.098;21.006;2023-02-12T06:12:15;102039.60;;;-0.10
68127;BMP180;54931;52.098;21.006;2023-02-12T06:14:43;102046.00;;;-0.10
68127;BMP180;54931;52.098;21.006;2023-02-12T06:17:11;102040.20;;;-0.10
68127;BMP180;54931;52.098;21.006;2023-02-12T06:19:39;102043.20;;;-0.10
68127;BMP180;54931;52.098;21.006;2023-02-12T06:22:06;102044.40;;;-0.10
68127;BMP180;54931;52.098;21.006;2023-02-12T06:24:35;102050.80;;;-0.10
68127;BMP180;54931;52.098;21.006;2023-02-12T06:27:03;102056.20;;;-0.10
68127;BMP180;54931;52.098;21.006;2023-02-12T06:29:31;102064.80;;;-0.04
68127;BMP180;54931;52.098;21.006;2023-02-12T06:31:59;102070.40;;;0.00
68127;BMP180;54931;52.098;21.006;2023-02-12T06:34:27;102072.40;;;0.00
68127;BMP180;54931;52.098;21.006;2023-02-12T06:36:55;102071.60;;;0.00
68127;BMP180;54931;52.098;21.006;2023-02-12T06:39:22;102071.00;;;0.00
68127;BMP180;54931;52.098;21.006;2023-02-12T06:41:50;102081.80;;;0.00
68127;BMP180;54931;52.098;21.006;2023-02-12T06:44:18;102070.20;;;0.00
68127;BMP180;54931;52.098;21.006;2023-02-12T06:46:46;102073.80;;;0.00
68127;BMP180;54931;52.098;21.006;2023-02-12T06:49:15;102074.80;;;0.00
68127;BMP180;54931;52.098;21.006;2023-02-12T06:51:43;102083.00;;;0.00
68127;BMP180;54931;52.098;21.006;2023-02-12T06:54:17;102084.20;;;0.00
68127;BMP180;54931;52.098;21.006;2023-02-12T06:56:45;102084.80;;;0.00
68127;BMP180;54931;52.098;21.006;2023-02-12T06:59:15;102083.20;;;0.10
68127;BMP180;54931;52.098;21.006;2023-02-12T07:01:43;102087.00;;;0.10
68127;BMP180;54931;52.098;21.006;2023-02-12T07:04:12;102088.00;;;0.10
68127;BMP180;54931;52.098;21.006;2023-02-12T07:06:39;102096.00;;;0.10
68127;BMP180;54931;52.098;21.006;2023-02-12T07:09:07;102098.60;;;0.20
68127;BMP180;54931;52.098;21.006;2023-02-12T07:11:36;102100.40;;;0.30
68127;BMP180;54931;52.098;21.006;2023-02-12T07:14:04;102094.60;;;0.40
68127;BMP180;54931;52.098;21.006;2023-02-12T07:16:32;102098.80;;;0.88
68127;BMP180;54931;52.098;21.006;2023-02-12T07:19:00;102093.80;;;1.64
68127;BMP180;54931;52.098;21.006;2023-02-12T07:21:28;102101.20;;;2.42
68127;BMP180;54931;52.098;21.006;2023-02-12T07:23:55;102108.80;;;2.90
68127;BMP180;54931;52.098;21.006;2023-02-12T07:26:23;102104.80;;;3.08
68127;BMP180;54931;52.098;21.006;2023-02-12T07:28:51;102112.40;;;3.60
68127;BMP180;54931;52.098;21.006;2023-02-12T07:31:22;102115.00;;;4.08
68127;BMP180;54931;52.098;21.006;2023-02-12T07:33:55;102120.60;;;4.44
68127;BMP180;54931;52.098;21.006;2023-02-12T07:36:28;102121.20;;;4.90
68127;BMP180;54931;52.098;21.006;2023-02-12T07:38:57;102122.20;;;5.00
68127;BMP180;54931;52.098;21.006;2023-02-12T07:41:32;102125.40;;;4.90
68127;BMP180;54931;52.098;21.006;2023-02-12T07:44:09;102121.60;;;4.70
68127;BMP180;54931;52.098;21.006;2023-02-12T07:46:46;102121.00;;;5.00
68127;BMP180;54931;52.098;21.006;2023-02-12T07:49:19;102118.20;;;5.26
68127;BMP180;54931;52.098;21.006;2023-02-12T07:51:48;102117.80;;;5.40
68127;BMP180;54931;52.098;21.006;2023-02-12T07:54:16;102128.00;;;5.50
68127;BMP180;54931;52.098;21.006;2023-02-12T07:56:44;102123.20;;;5.70
68127;BMP180;54931;52.098;21.006;2023-02-12T07:59:16;102128.80;;;5.80
68127;BMP180;54931;52.098;21.006;2023-02-12T08:01:50;102127.60;;;6.10
68127;BMP180;54931;52.098;21.006;2023-02-12T08:04:21;102139.20;;;5.80
68127;BMP180;54931;52.098;21.006;2023-02-12T08:06:53;102146.60;;;5.42
68127;BMP180;54931;52.098;21.006;2023-02-12T08:09:26;102148.20;;;5.30
68127;BMP180;54931;52.098;21.006;2023-02-12T08:11:54;102154.40;;;5.30
68127;BMP180;54931;52.098;21.006;2023-02-12T08:14:22;102158.00;;;5.50
68127;BMP180;54931;52.098;21.006;2023-02-12T08:16:51;102158.80;;;6.02
68127;BMP180;54931;52.098;21.006;2023-02-12T08:19:19;102160.00;;;6.54
68127;BMP180;54931;52.098;21.006;2023-02-12T08:21:53;102163.60;;;6.90
68127;BMP180;54931;52.098;21.006;2023-02-12T08:24:22;102160.80;;;6.70
68127;BMP180;54931;52.098;21.006;2023-02-12T08:26:51;102164.00;;;6.70
68127;BMP180;54931;52.098;21.006;2023-02-12T08:29:26;102171.60;;;6.42
68127;BMP180;54931;52.098;21.006;2023-02-12T08:31:57;102170.00;;;6.50
68127;BMP180;54931;52.098;21.006;2023-02-12T08:34:32;102169.40;;;6.58
68127;BMP180;54931;52.098;21.006;2023-02-12T08:37:03;102171.80;;;6.10
68127;BMP180;54931;52.098;21.006;2023-02-12T08:39:31;102170.20;;;6.10
68127;BMP180;54931;52.098;21.006;2023-02-12T08:42:00;102169.40;;;6.00
68127;BMP180;54931;52.098;21.006;2023-02-12T08:44:28;102170.40;;;5.60
68127;BMP180;54931;52.098;21.006;2023-02-12T08:46:57;102175.80;;;5.70
68127;BMP180;54931;52.098;21.006;2023-02-12T08:49:28;102177.20;;;5.80
68127;BMP180;54931;52.098;21.006;2023-02-12T08:51:58;102183.40;;;5.50
68127;BMP180;54931;52.098;21.006;2023-02-12T08:54:30;102174.40;;;5.30
68127;BMP180;54931;52.098;21.006;2023-02-12T08:57:01;102177.40;;;5.20
68127;BMP180;54931;52.098;21.006;2023-02-12T08:59:29;102179.60;;;5.68
68127;BMP180;54931;52.098;21.006;2023-02-12T09:01:57;102182.60;;;6.20
68127;BMP180;54931;52.098;21.006;2023-02-12T09:04:28;102177.40;;;5.94
68127;BMP180;54931;52.098;21.006;2023-02-12T09:06:56;102165.80;;;5.88
68127;BMP180;54931;52.098;21.006;2023-02-12T09:09:23;102169.20;;;6.06
68127;BMP180;54931;52.098;21.006;2023-02-12T09:11:51;102176.80;;;6.36
68127;BMP180;54931;52.098;21.006;2023-02-12T09:14:19;102173.80;;;6.76
68127;BMP180;54931;52.098;21.006;2023-02-12T09:16:50;102181.00;;;6.90
68127;BMP180;54931;52.098;21.006;2023-02-12T09:19:19;102186.60;;;7.10
68127;BMP180;54931;52.098;21.006;2023-02-12T09:21:54;102187.40;;;6.98
68127;BMP180;54931;52.098;21.006;2023-02-12T09:24:22;102184.20;;;6.90
68127;BMP180;54931;52.098;21.006;2023-02-12T09:26:49;102192.80;;;6.90
68127;BMP180;54931;52.098;21.006;2023-02-12T09:29:17;102193.00;;;6.40
68127;BMP180;54931;52.098;21.006;2023-02-12T09:31:45;102192.20;;;6.20
68127;BMP180;54931;52.098;21.006;2023-02-12T09:34:12;102207.00;;;5.96
68127;BMP180;54931;52.098;21.006;2023-02-12T09:36:40;102210.40;;;5.42
68127;BMP180;54931;52.098;21.006;2023-02-12T09:39:07;102205.60;;;5.10
68127;BMP180;54931;52.098;21.006;2023-02-12T09:44:59;102202.00;;;5.66
68127;BMP180;54931;52.098;21.006;2023-02-12T09:47:30;102212.80;;;6.20
68127;BMP180;54931;52.098;21.006;2023-02-12T09:52:56;102228.00;;;6.20
68127;BMP180;54931;52.098;21.006;2023-02-12T09:55:28;102221.80;;;6.40
68127;BMP180;54931;52.098;21.006;2023-02-12T09:57:57;102230.60;;;6.50
68127;BMP180;54931;52.098;21.006;2023-02-12T10:00:29;102231.80;;;6.50
68127;BMP180;54931;52.098;21.006;2023-02-12T10:03:02;102226.00;;;6.42
68127;BMP180;54931;52.098;21.006;2023-02-12T10:05:39;102228.20;;;6.42
68127;BMP180;54931;52.098;21.006;2023-02-12T10:19:26;102235.20;;;6.80
68127;BMP180;54931;52.098;21.006;2023-02-12T10:22:19;102223.00;;;6.66
68127;BMP180;54931;52.098;21.006;2023-02-12T10:27:53;102211.60;;;6.60
68127;BMP180;54931;52.098;21.006;2023-02-12T10:33:02;102208.20;;;6.32
68127;BMP180;54931;52.098;21.006;2023-02-12T10:35:31;102220.20;;;6.02
68127;BMP180;54931;52.098;21.006;2023-02-12T10:40:33;102222.80;;;5.80
68127;BMP180;54931;52.098;21.006;2023-02-12T10:43:03;102218.20;;;5.90
68127;BMP180;54931;52.098;21.006;2023-02-12T10:45:36;102217.00;;;5.80
68127;BMP180;54931;52.098;21.006;2023-02-12T10:48:17;102216.20;;;5.64
68127;BMP180;54931;52.098;21.006;2023-02-12T10:53:52;102210.20;;;5.26
68127;BMP180;54931;52.098;21.006;2023-02-12T10:56:23;102206.20;;;5.10
68127;BMP180;54931;52.098;21.006;2023-02-12T10:58:57;102216.00;;;5.00
68127;BMP180;54931;52.098;21.006;2023-02-12T11:01:34;102210.80;;;5.00
68127;BMP180;54931;52.098;21.006;2023-02-12T11:04:26;102205.60;;;5.10
68127;BMP180;54931;52.098;21.006;2023-02-12T11:07:05;102198.80;;;5.06
68127;BMP180;54931;52.098;21.006;2023-02-12T11:09:38;102207.80;;;4.90
68127;BMP180;54931;52.098;21.006;2023-02-12T11:12:32;102207.60;;;4.90
68127;BMP180;54931;52.098;21.006;2023-02-12T11:15:19;102207.60;;;5.00
68127;BMP180;54931;52.098;21.006;2023-02-12T11:17:59;102203.60;;;5.10
68127;BMP180;54931;52.098;21.006;2023-02-12T11:20:33;102202.80;;;5.20
68127;BMP180;54931;52.098;21.006;2023-02-12T11:23:06;102205.80;;;5.30
68127;BMP180;54931;52.098;21.006;2023-02-12T11:29:01;102206.80;;;5.00
68127;BMP180;54931;52.098;21.006;2023-02-12T11:31:33;102206.80;;;5.00
68127;BMP180;54931;52.098;21.006;2023-02-12T11:34:14;102207.40;;;5.00
68127;BMP180;54931;52.098;21.006;2023-02-12T11:36:49;102207.80;;;5.10
68127;BMP180;54931;52.098;21.006;2023-02-12T11:39:23;102205.40;;;5.30
68127;BMP180;54931;52.098;21.006;2023-02-12T11:42:04;102204.20;;;5.40
68127;BMP180;54931;52.098;21.006;2023-02-12T11:44:38;102199.80;;;5.20
68127;BMP180;54931;52.098;21.006;2023-02-12T11:47:08;102199.20;;;5.10
68127;BMP180;54931;52.098;21.006;2023-02-12T11:52:28;102192.40;;;4.98
68127;BMP180;54931;52.098;21.006;2023-02-12T11:55:23;102189.80;;;4.82
68127;BMP180;54931;52.098;21.006;2023-02-12T11:57:52;102190.40;;;4.90
68127;BMP180;54931;52.098;21.006;2023-02-12T12:00:26;102191.00;;;5.00
68127;BMP180;54931;52.098;21.006;2023-02-12T12:06:37;102190.00;;;5.20
68127;BMP180;54931;52.098;21.006;2023-02-12T12:14:41;102193.40;;;4.96
68127;BMP180;54931;52.098;21.006;2023-02-12T12:17:52;102189.20;;;5.08
68127;BMP180;54931;52.098;21.006;2023-02-12T12:20:52;102192.20;;;5.06
68127;BMP180;54931;52.098;21.006;2023-02-12T12:23:30;102189.40;;;5.30
68127;BMP180;54931;52.098;21.006;2023-02-12T12:26:07;102191.80;;;5.40
68127;BMP180;54931;52.098;21.006;2023-02-12T12:28:46;102189.40;;;5.56
68127;BMP180;54931;52.098;21.006;2023-02-12T12:33:50;102174.60;;;5.16
68127;BMP180;54931;52.098;21.006;2023-02-12T12:41:52;102173.00;;;5.10
68127;BMP180;54931;52.098;21.006;2023-02-12T13:04:03;102151.40;;;4.44
68127;BMP180;54931;52.098;21.006;2023-02-12T13:11:52;102152.80;;;4.50
68127;BMP180;54931;52.098;21.006;2023-02-12T13:14:44;102157.00;;;4.40
68127;BMP180;54931;52.098;21.006;2023-02-12T13:17:35;102154.60;;;4.30
68127;BMP180;54931;52.098;21.006;2023-02-12T13:20:15;102151.60;;;4.20
68127;BMP180;54931;52.098;21.006;2023-02-12T13:22:58;102145.40;;;4.08
68127;BMP180;54931;52.098;21.006;2023-02-12T13:27:58;102142.00;;;4.30
68127;BMP180;54931;52.098;21.006;2023-02-12T13:30:37;102144.80;;;4.30
68127;BMP180;54931;52.098;21.006;2023-02-12T13:33:19;102147.20;;;4.30
68127;BMP180;54931;52.098;21.006;2023-02-12T13:35:50;102145.20;;;4.20
68127;BMP180;54931;52.098;21.006;2023-02-12T13:38:22;102151.20;;;4.20
68127;BMP180;54931;52.098;21.006;2023-02-12T13:40:54;102157.00;;;4.20
68127;BMP180;54931;52.098;21.006;2023-02-12T13:46:51;102162.00;;;4.00
68127;BMP180;54931;52.098;21.006;2023-02-12T13:49:51;102159.80;;;3.90
68127;BMP180;54931;52.098;21.006;2023-02-12T13:52:36;102154.40;;;3.76
68127;BMP180;54931;52.098;21.006;2023-02-12T14:01:02;102154.60;;;3.60
68127;BMP180;54931;52.098;21.006;2023-02-12T14:03:31;102152.00;;;3.50
68127;BMP180;54931;52.098;21.006;2023-02-12T14:06:15;102155.20;;;3.40
68127;BMP180;54931;52.098;21.006;2023-02-12T14:08:52;102146.80;;;3.30
68127;BMP180;54931;52.098;21.006;2023-02-12T14:11:24;102146.40;;;3.30
68127;BMP180;54931;52.098;21.006;2023-02-12T14:14:00;102151.40;;;3.30
68127;BMP180;54931;52.098;21.006;2023-02-12T14:19:41;102150.80;;;3.22
68127;BMP180;54931;52.098;21.006;2023-02-12T14:24:57;102157.60;;;3.20
68127;BMP180;54931;52.098;21.006;2023-02-12T14:35:35;102160.40;;;3.10
68127;BMP180;54931;52.098;21.006;2023-02-12T14:46:52;102153.60;;;2.72
68127;BMP180;54931;52.098;21.006;2023-02-12T14:52:24;102141.20;;;2.60
68127;BMP180;54931;52.098;21.006;2023-02-12T14:55:16;102149.40;;;2.50
68127;BMP180;54931;52.098;21.006;2023-02-12T14:57:45;102147.40;;;2.40
68127;BMP180;54931;52.098;21.006;2023-02-12T15:00:25;102146.20;;;2.30
68127;BMP180;54931;52.098;21.006;2023-02-12T15:03:51;102144.20;;;2.28
68127;BMP180;54931;52.098;21.006;2023-02-12T15:06:17;102145.40;;;2.20
68127;BMP180;54931;52.098;21.006;2023-02-12T15:09:02;102153.40;;;2.10
68127;BMP180;54931;52.098;21.006;2023-02-12T15:11:57;102155.40;;;2.00
68127;BMP180;54931;52.098;21.006;2023-02-12T15:14:31;102152.60;;;2.00
68127;BMP180;54931;52.098;21.006;2023-02-12T15:17:25;102146.40;;;1.90
68127;BMP180;54931;52.098;21.006;2023-02-12T15:20:01;102145.60;;;1.80
68127;BMP180;54931;52.098;21.006;2023-02-12T15:22:40;102148.60;;;1.80
68127;BMP180;54931;52.098;21.006;2023-02-12T15:25:24;102150.80;;;1.70
68127;BMP180;54931;52.098;21.006;2023-02-12T15:28:00;102154.20;;;1.60
68127;BMP180;54931;52.098;21.006;2023-02-12T15:30:34;102152.20;;;1.60
68127;BMP180;54931;52.098;21.006;2023-02-12T15:33:05;102156.20;;;1.50
68127;BMP180;54931;52.098;21.006;2023-02-12T15:35:38;102154.80;;;1.40
68127;BMP180;54931;52.098;21.006;2023-02-12T15:38:25;102161.40;;;1.30
68127;BMP180;54931;52.098;21.006;2023-02-12T15:40:58;102162.00;;;1.22
68127;BMP180;54931;52.098;21.006;2023-02-12T15:43:31;102164.00;;;1.18
68127;BMP180;54931;52.098;21.006;2023-02-12T15:46:03;102165.40;;;1.10
68127;BMP180;54931;52.098;21.006;2023-02-12T15:48:35;102173.60;;;1.00
68127;BMP180;54931;52.098;21.006;2023-02-12T15:53:39;102168.60;;;0.80
68127;BMP180;54931;52.098;21.006;2023-02-12T15:56:19;102171.00;;;0.70
68127;BMP180;54931;52.098;21.006;2023-02-12T15:58:50;102172.80;;;0.60
68127;BMP180;54931;52.098;21.006;2023-02-12T16:01:25;102175.60;;;0.56
68127;BMP180;54931;52.098;21.006;2023-02-12T16:04:01;102176.60;;;0.50
68127;BMP180;54931;52.098;21.006;2023-02-12T16:06:34;102173.20;;;0.40
68127;BMP180;54931;52.098;21.006;2023-02-12T16:12:07;102166.80;;;0.30
68127;BMP180;54931;52.098;21.006;2023-02-12T16:14:51;102161.20;;;0.20
68127;BMP180;54931;52.098;21.006;2023-02-12T16:20:02;102152.20;;;0.02
68127;BMP180;54931;52.098;21.006;2023-02-12T16:22:40;102148.80;;;-0.08
68127;BMP180;54931;52.098;21.006;2023-02-12T16:25:28;102143.80;;;-0.18
68127;BMP180;54931;52.098;21.006;2023-02-12T16:28:03;102148.80;;;-0.26
68127;BMP180;54931;52.098;21.006;2023-02-12T16:30:40;102146.60;;;-0.30
68127;BMP180;54931;52.098;21.006;2023-02-12T16:38:55;102154.80;;;-0.50
68127;BMP180;54931;52.098;21.006;2023-02-12T16:41:55;102154.00;;;-0.60
68127;BMP180;54931;52.098;21.006;2023-02-12T16:44:28;102153.40;;;-0.60
68127;BMP180;54931;52.098;21.006;2023-02-12T16:47:00;102152.40;;;-0.70
68127;BMP180;54931;52.098;21.006;2023-02-12T16:49:28;102151.20;;;-0.70
68127;BMP180;54931;52.098;21.006;2023-02-12T16:52:38;102143.20;;;-0.72
68127;BMP180;54931;52.098;21.006;2023-02-12T16:55:15;102143.40;;;-0.80
68127;BMP180;54931;52.098;21.006;2023-02-12T16:57:43;102140.00;;;-0.84
68127;BMP180;54931;52.098;21.006;2023-02-12T17:00:15;102134.20;;;-0.90
68127;BMP180;54931;52.098;21.006;2023-02-12T17:02:44;102134.40;;;-1.00
68127;BMP180;54931;52.098;21.006;2023-02-12T17:05:16;102134.20;;;-1.00
68127;BMP180;54931;52.098;21.006;2023-02-12T17:07:44;102131.40;;;-1.10
68127;BMP180;54931;52.098;21.006;2023-02-12T17:10:14;102121.20;;;-1.10
68127;BMP180;54931;52.098;21.006;2023-02-12T17:12:51;102111.80;;;-1.20
68127;BMP180;54931;52.098;21.006;2023-02-12T17:15:32;102115.40;;;-1.20